createdAt,value
2018-05-07T00:01:16.855Z,3.03
2018-05-07T00:03:43.057Z,3.33
2018-05-07T00:06:09.288Z,2.93
2018-05-07T00:08:35.430Z,3.23
2018-05-07T00:11:01.651Z,3.30
2018-05-07T00:13:27.867Z,3.00
2018-05-07T00:15:54.040Z,2.87
2018-05-07T00:18:20.212Z,3.40
2018-05-07T00:20:46.383Z,2.87
2018-05-07T00:23:12.549Z,3.07
2018-05-07T00:25:38.716Z,3.17
2018-05-07T00:28:04.900Z,3.60
2018-05-07T00:30:38.732Z,3.37
2018-05-07T00:33:04.934Z,2.90
2018-05-07T00:35:31.855Z,3.00
2018-05-07T00:37:58.100Z,3.10
2018-05-07T00:40:24.299Z,2.80
2018-05-07T00:42:50.464Z,3.10
2018-05-07T00:45:17.393Z,2.93
2018-05-07T00:47:43.585Z,2.90
2018-05-07T00:50:09.759Z,3.03
2018-05-07T00:52:35.939Z,3.27
2018-05-07T00:55:14.372Z,3.03
2018-05-07T00:57:40.566Z,3.40
2018-05-07T01:00:06.768Z,3.50
2018-05-07T01:02:32.961Z,3.73
2018-05-07T01:04:59.140Z,3.37
2018-05-07T01:07:25.320Z,3.27
2018-05-07T01:09:52.255Z,3.10
2018-05-07T01:12:18.460Z,3.40
2018-05-07T01:14:44.651Z,3.03
2018-05-07T01:17:11.570Z,3.13
2018-05-07T01:19:37.755Z,3.70
2018-05-07T01:22:03.953Z,3.50
2018-05-07T01:24:30.856Z,3.53
2018-05-07T01:26:57.048Z,3.30
2018-05-07T01:29:23.213Z,3.03
2018-05-07T01:31:49.395Z,3.33
2018-05-07T01:34:15.575Z,3.50
2018-05-07T01:36:41.747Z,3.17
2018-05-07T01:39:07.984Z,3.07
2018-05-07T01:41:34.199Z,3.33
2018-05-07T01:44:00.457Z,3.60
2018-05-07T01:46:26.640Z,4.00
2018-05-07T01:48:53.722Z,3.33
2018-05-07T01:51:19.956Z,3.50
2018-05-07T01:53:46.155Z,3.60
2018-05-07T01:56:12.331Z,3.70
2018-05-07T01:58:38.523Z,4.00
2018-05-07T02:01:04.708Z,3.20
2018-05-07T02:03:31.653Z,3.17
2018-05-07T02:05:58.575Z,3.77
2018-05-07T02:08:24.757Z,3.30
2018-05-07T02:10:50.974Z,3.80
2018-05-07T02:13:17.895Z,3.93
2018-05-07T02:15:44.107Z,3.93
2018-05-07T02:18:10.345Z,3.47
2018-05-07T02:20:36.529Z,3.60
2018-05-07T02:23:02.729Z,3.37
2018-05-07T02:25:29.041Z,4.03
2018-05-07T02:27:55.972Z,3.57
2018-05-07T02:30:22.182Z,3.90
2018-05-07T02:32:48.376Z,3.70
2018-05-07T02:35:14.578Z,4.03
2018-05-07T02:37:41.514Z,4.10
2018-05-07T02:40:08.471Z,3.90
2018-05-07T02:42:34.672Z,3.80
2018-05-07T02:45:00.948Z,3.50
2018-05-07T02:47:27.168Z,3.83
2018-05-07T02:49:53.365Z,4.23
2018-05-07T02:52:19.591Z,3.70
2018-05-07T02:54:45.805Z,3.73
2018-05-07T02:57:12.020Z,4.17
2018-05-07T02:59:38.229Z,4.00
2018-05-07T03:02:04.433Z,4.20
2018-05-07T03:04:30.644Z,3.40
2018-05-07T03:06:57.591Z,3.97
2018-05-07T03:09:23.765Z,3.87
2018-05-07T03:11:49.945Z,3.93
2018-05-07T03:14:16.909Z,4.10
2018-05-07T03:16:43.109Z,3.97
2018-05-07T03:19:10.081Z,4.13
2018-05-07T03:21:36.290Z,4.17
2018-05-07T03:24:02.547Z,4.10
2018-05-07T03:26:28.755Z,4.20
2018-05-07T03:28:54.991Z,3.90
2018-05-07T03:31:21.160Z,3.83
2018-05-07T03:33:47.333Z,3.60
2018-05-07T03:36:14.283Z,3.83
2018-05-07T03:38:40.451Z,3.70
2018-05-07T03:41:06.632Z,3.53
2018-05-07T03:43:33.572Z,2.97
2018-05-07T03:46:00.508Z,3.50
2018-05-07T03:48:26.670Z,3.40
2018-05-07T03:50:52.868Z,3.50
2018-05-07T03:53:19.786Z,3.40
2018-05-07T03:55:46.036Z,3.40
2018-05-07T03:58:12.970Z,3.70
2018-05-07T04:00:39.930Z,3.50
2018-05-07T04:03:06.160Z,4.00
2018-05-07T04:05:33.993Z,3.30
2018-05-07T04:08:00.200Z,3.60
2018-05-07T04:10:26.397Z,3.90
2018-05-07T04:12:52.623Z,3.90
2018-05-07T04:15:18.812Z,3.53
2018-05-07T04:17:58.936Z,3.87
2018-05-07T04:20:37.545Z,3.47
2018-05-07T04:23:16.077Z,3.70
2018-05-07T04:25:42.300Z,3.57
2018-05-07T04:28:08.520Z,3.43
2018-05-07T04:30:34.737Z,3.30
2018-05-07T04:33:01.731Z,3.63
2018-05-07T04:35:27.954Z,3.80
2018-05-07T04:37:54.977Z,3.73
2018-05-07T04:40:21.172Z,3.50
2018-05-07T04:42:47.361Z,3.43
2018-05-07T04:45:14.355Z,3.60
2018-05-07T04:47:40.548Z,4.40
2018-05-07T04:50:07.456Z,3.80
2018-05-07T04:52:33.641Z,3.80
2018-05-07T04:54:59.827Z,3.83
2018-05-07T04:57:26.750Z,3.57
2018-05-07T04:59:52.954Z,3.97
2018-05-07T05:02:19.188Z,3.70
2018-05-07T05:04:45.391Z,3.77
2018-05-07T05:07:11.615Z,3.80
2018-05-07T05:09:38.548Z,3.83
2018-05-07T05:12:05.475Z,3.80
2018-05-07T05:14:31.675Z,3.87
2018-05-07T05:16:57.867Z,3.60
2018-05-07T05:19:24.057Z,3.57
2018-05-07T05:21:50.243Z,3.97
2018-05-07T05:24:16.434Z,3.97
2018-05-07T05:26:42.611Z,3.80
2018-05-07T05:29:08.782Z,4.40
2018-05-07T05:31:35.705Z,4.17
2018-05-07T05:34:01.956Z,4.57
2018-05-07T05:36:28.907Z,4.73
2018-05-07T05:38:55.853Z,4.30
2018-05-07T05:41:22.771Z,4.17
2018-05-07T05:43:49.031Z,4.53
2018-05-07T05:46:15.164Z,4.40
2018-05-07T05:48:42.228Z,4.37
2018-05-07T05:51:08.443Z,4.47
2018-05-07T05:53:34.631Z,4.80
2018-05-07T05:56:00.809Z,3.80
2018-05-07T05:58:26.989Z,4.80
2018-05-07T06:00:53.912Z,4.40
2018-05-07T06:03:20.127Z,4.47
2018-05-07T06:05:46.306Z,4.03
2018-05-07T06:08:13.300Z,4.00
2018-05-07T06:10:39.473Z,4.07
2018-05-07T06:13:06.443Z,4.17
2018-05-07T06:15:32.632Z,3.87
2018-05-07T06:17:59.579Z,3.90
2018-05-07T06:20:26.512Z,3.90
2018-05-07T06:22:53.500Z,4.13
2018-05-07T06:25:19.702Z,4.17
2018-05-07T06:27:46.646Z,3.93
2018-05-07T06:33:15.047Z,3.67
2018-05-07T06:35:42.012Z,4.10
2018-05-07T06:38:08.195Z,4.13
2018-05-07T06:40:34.391Z,3.67
2018-05-07T06:43:00.598Z,4.13
2018-05-07T06:45:26.779Z,4.30
2018-05-07T06:47:53.736Z,4.10
2018-05-07T06:50:20.683Z,3.57
2018-05-07T06:52:47.621Z,4.00
2018-05-07T06:55:14.596Z,3.43
2018-05-07T06:57:40.771Z,3.80
2018-05-07T07:00:07.000Z,4.03
2018-05-07T07:02:33.239Z,3.73
2018-05-07T07:04:59.404Z,4.77
2018-05-07T07:07:25.601Z,4.93
2018-05-07T07:09:51.764Z,5.40
2018-05-07T07:12:17.956Z,4.90
2018-05-07T07:14:44.900Z,4.60
2018-05-07T07:17:11.847Z,4.53
2018-05-07T07:19:38.821Z,4.83
2018-05-07T07:22:05.030Z,5.23
2018-05-07T07:24:31.434Z,5.50
2018-05-07T07:26:57.657Z,6.13
2018-05-07T07:29:23.846Z,5.07
2018-05-07T07:31:50.063Z,4.87
2018-05-07T07:34:16.255Z,5.00
2018-05-07T07:36:42.444Z,4.43
2018-05-07T20:10:10.662Z,2.80
2018-05-07T20:12:36.900Z,2.30
2018-05-07T20:15:03.070Z,2.13
2018-05-07T20:17:30.020Z,2.27
2018-05-07T20:19:57.013Z,2.80
2018-05-07T20:22:23.875Z,2.50
2018-05-07T20:24:50.082Z,2.57
2018-05-07T20:27:16.296Z,2.37
2018-05-07T20:29:42.490Z,2.53
2018-05-07T20:32:09.433Z,2.60
2018-05-07T20:34:35.618Z,2.47
2018-05-07T20:37:01.815Z,2.30
2018-05-07T20:39:28.015Z,2.70
2018-05-07T20:41:54.944Z,2.10
2018-05-07T20:44:21.127Z,2.80
2018-05-07T20:46:47.328Z,2.00
2018-05-07T20:49:14.279Z,2.33
2018-05-07T20:51:40.461Z,2.23
2018-05-07T20:54:06.647Z,2.00
2018-05-07T20:56:32.865Z,2.87
2018-05-07T20:58:59.117Z,3.53
2018-05-07T21:01:25.394Z,3.00
2018-05-07T21:03:51.548Z,3.57
2018-05-07T21:06:17.760Z,2.37
2018-05-07T21:08:44.718Z,2.30
2018-05-07T21:11:11.637Z,2.37
2018-05-07T21:13:37.821Z,2.30
2018-05-07T21:16:04.023Z,2.10
2018-05-07T21:18:30.240Z,2.50
2018-05-07T21:20:56.427Z,2.30
2018-05-07T21:23:22.612Z,2.30
2018-05-07T21:25:48.837Z,2.20
2018-05-07T21:28:15.070Z,2.47
2018-05-07T21:30:41.283Z,2.60
2018-05-07T21:33:07.497Z,2.20
2018-05-07T21:35:34.431Z,2.23
2018-05-07T21:38:01.379Z,2.20
2018-05-07T21:40:28.323Z,2.40
2018-05-07T21:42:55.249Z,2.47
2018-05-07T21:45:21.460Z,2.50
2018-05-07T21:47:47.724Z,2.10
2018-05-07T21:50:13.838Z,2.10
2018-05-07T21:52:40.088Z,2.07
2018-05-07T21:55:06.260Z,1.97
2018-05-07T21:57:32.464Z,2.20
2018-05-07T21:59:58.701Z,2.07
2018-05-07T22:02:24.895Z,2.10
2018-05-07T22:04:51.141Z,1.80
2018-05-07T22:07:17.379Z,2.17
2018-05-07T22:09:43.559Z,2.03
2018-05-07T22:12:09.754Z,2.13
2018-05-07T22:14:35.930Z,2.20
2018-05-07T22:17:02.867Z,2.07
2018-05-07T22:19:29.784Z,2.57
2018-05-07T22:21:55.969Z,2.10
2018-05-07T22:24:22.160Z,2.20
2018-05-07T22:26:48.303Z,2.20
2018-05-07T22:29:15.328Z,2.40
2018-05-07T22:31:42.283Z,2.70
2018-05-07T22:34:09.213Z,2.73
2018-05-07T22:36:35.388Z,1.90
2018-05-07T22:39:01.626Z,2.43
2018-05-07T22:41:27.779Z,2.27
2018-05-07T22:43:54.001Z,2.30
2018-05-07T22:46:20.324Z,2.10
2018-05-07T22:48:46.372Z,2.33
2018-05-07T22:51:12.563Z,2.50
2018-05-07T22:53:38.775Z,2.00
2018-05-07T22:56:04.959Z,2.00
2018-05-07T22:58:31.919Z,2.40
2018-05-07T23:00:58.864Z,2.20
2018-05-07T23:03:25.846Z,2.87
2018-05-07T23:05:52.039Z,2.30
2018-05-07T23:08:18.231Z,2.20
2018-05-07T23:10:44.441Z,2.13
2018-05-07T23:13:10.634Z,2.53
2018-05-07T23:15:36.835Z,2.70
2018-05-07T23:18:03.759Z,2.50
2018-05-07T23:20:29.955Z,2.50
2018-05-07T23:22:56.185Z,2.33
2018-05-07T23:25:22.367Z,2.60
2018-05-07T23:27:49.277Z,2.57
2018-05-07T23:30:16.943Z,2.60
2018-05-07T23:32:43.127Z,2.60
2018-05-07T23:35:09.303Z,2.40
2018-05-07T23:37:35.492Z,2.70
2018-05-07T23:40:01.699Z,2.60
2018-05-07T23:42:27.909Z,2.27
2018-05-07T23:44:54.083Z,2.53
2018-05-07T23:47:20.264Z,2.60
2018-05-07T23:49:47.183Z,2.87
2018-05-07T23:52:13.368Z,2.80
2018-05-07T23:54:39.548Z,2.83
2018-05-07T23:57:05.731Z,3.00
2018-05-07T23:59:31.900Z,2.80
